Time,TemperatureF,DewpointF,PressureIn,WindDirection,WindDirectionDegrees,WindSpeedMPH,WindSpeedGustMPH,Humidity,HourlyPrecipIn,Conditions,Clouds,dailyrainin,SoftwareType,DateUTC
2013-12-02 00:01:00,47.0,40.2,30.01,SW,225,0.0,0.0,77,0.00,,---,0.00,VWS V14.01,2013-12-02 05:01:00,
2013-12-02 00:02:00,47.0,40.2,30.01,SW,225,0.0,0.0,77,0.00,,---,0.00,VWS V14.01,2013-12-02 05:02:00,
2013-12-02 00:07:00,47.1,39.9,30.01,SW,225,0.0,0.0,76,0.00,,---,0.00,VWS V14.01,2013-12-02 05:07:00,
2013-12-02 00:12:00,47.3,40.5,30.01,SW,225,0.0,0.0,77,0.00,,---,0.00,VWS V14.01,2013-12-02 05:12:00,
2013-12-02 00:17:00,47.3,40.8,30.00,SW,225,0.0,0.0,78,0.00,,---,0.00,VWS V14.01,2013-12-02 05:17:00,
2013-12-02 00:22:00,47.4,41.2,30.00,SW,225,0.0,0.0,79,0.00,,---,0.00,VWS V14.01,2013-12-02 05:22:00,
2013-12-02 00:27:00,47.4,41.5,30.00,SW,225,0.0,0.0,80,0.00,,---,0.00,VWS V14.01,2013-12-02 05:27:00,
2013-12-02 00:32:00,47.3,42.1,30.00,SW,225,0.0,0.0,82,0.00,,---,0.00,VWS V14.01,2013-12-02 05:32:00,
2013-12-02 00:37:00,47.2,41.4,30.00,SW,225,0.0,0.0,80,0.00,,---,0.00,VWS V14.01,2013-12-02 05:37:00,
2013-12-02 00:42:00,47.1,40.6,29.99,SW,225,0.0,0.0,78,0.00,,---,0.00,VWS V14.01,2013-12-02 05:42:00,
2013-12-02 00:47:00,47.2,41.7,29.99,SW,225,0.0,0.0,81,0.00,,---,0.00,VWS V14.01,2013-12-02 05:47:00,
2013-12-02 00:52:00,47.1,42.2,30.00,SW,225,0.0,0.0,83,0.00,,---,0.00,VWS V14.01,2013-12-02 05:52:00,
2013-12-02 00:57:00,47.1,42.2,29.99,SW,225,0.0,0.0,83,0.00,,---,0.00,VWS V14.01,2013-12-02 05:57:00,
2013-12-02 01:02:00,47.1,42.2,29.99,SW,225,0.0,0.0,83,0.00,,---,0.00,VWS V14.01,2013-12-02 06:02:00,
2013-12-02 01:07:00,47.0,42.1,29.99,SW,225,0.0,0.0,83,0.00,,---,0.00,VWS V14.01,2013-12-02 06:07:00,
2013-12-02 01:12:00,47.0,42.1,29.99,SW,225,0.0,0.0,83,0.00,,---,0.00,VWS V14.01,2013-12-02 06:12:00,
2013-12-02 01:17:00,46.9,41.1,29.99,SW,225,0.0,0.0,80,0.00,,---,0.00,VWS V14.01,2013-12-02 06:17:00,
2013-12-02 01:22:00,46.9,40.7,29.98,SW,225,0.0,0.0,79,0.00,,---,0.00,VWS V14.01,2013-12-02 06:22:00,
2013-12-02 01:27:00,46.9,42.0,29.98,SW,225,0.0,0.0,83,0.00,,---,0.00,VWS V14.01,2013-12-02 06:27:00,
2013-12-02 01:32:00,46.9,42.3,29.98,SW,225,0.0,0.0,84,0.00,,---,0.00,VWS V14.01,2013-12-02 06:32:00,
2013-12-02 01:37:00,46.9,42.0,29.98,SW,225,0.0,0.0,83,0.00,,---,0.00,VWS V14.01,2013-12-02 06:37:00,
2013-12-02 01:42:00,46.8,41.9,29.98,SW,225,0.0,0.0,83,0.00,,---,0.00,VWS V14.01,2013-12-02 06:42:00,
2013-12-02 01:47:00,46.8,41.9,29.98,SW,225,0.0,0.0,83,0.00,,---,0.00,VWS V14.01,2013-12-02 06:47:00,
2013-12-02 01:52:00,46.7,41.8,29.98,SW,225,0.0,0.0,83,0.00,,---,0.00,VWS V14.01,2013-12-02 06:52:00,
2013-12-02 01:57:00,46.6,41.1,29.98,SW,225,0.0,0.0,81,0.00,,---,0.00,VWS V14.01,2013-12-02 06:57:00,
2013-12-02 02:02:00,46.6,40.5,29.97,SW,225,0.0,0.0,79,0.00,,---,0.00,VWS V14.01,2013-12-02 07:02:00,
2013-12-02 02:07:00,46.7,40.9,29.97,SW,225,0.0,0.0,80,0.00,,---,0.00,VWS V14.01,2013-12-02 07:07:00,
2013-12-02 02:12:00,46.8,41.0,29.97,SW,225,0.0,0.0,80,0.00,,---,0.00,VWS V14.01,2013-12-02 07:12:00,
2013-12-02 02:17:00,46.8,41.0,29.97,SW,225,0.0,0.0,80,0.00,,---,0.00,VWS V14.01,2013-12-02 07:17:00,
2013-12-02 02:22:00,46.9,42.0,29.97,SW,225,1.0,1.0,83,0.00,,---,0.00,VWS V14.01,2013-12-02 07:22:00,
2013-12-02 02:27:00,46.8,41.9,29.98,SW,225,0.0,1.0,83,0.00,,---,0.00,VWS V14.01,2013-12-02 07:27:00,
2013-12-02 02:32:00,46.8,41.9,29.97,SW,225,0.0,0.0,83,0.00,,---,0.00,VWS V14.01,2013-12-02 07:32:00,
2013-12-02 02:37:00,46.7,42.1,29.97,SW,225,0.0,0.0,84,0.00,,---,0.00,VWS V14.01,2013-12-02 07:37:00,
2013-12-02 02:42:00,46.6,42.0,29.97,SW,225,0.0,0.0,84,0.00,,---,0.00,VWS V14.01,2013-12-02 07:42:00,
2013-12-02 02:47:00,46.6,42.3,29.97,SW,225,0.0,0.0,85,0.00,,---,0.00,VWS V14.01,2013-12-02 07:47:00,
2013-12-02 02:52:00,46.5,42.5,29.97,SW,225,0.0,0.0,86,0.00,,---,0.00,VWS V14.01,2013-12-02 07:52:00,
2013-12-02 02:57:00,46.4,42.8,29.98,SW,225,0.0,0.0,87,0.01,,---,0.01,VWS V14.01,2013-12-02 07:57:00,
2013-12-02 03:02:00,46.3,42.7,29.97,SW,225,0.0,0.0,87,0.01,,---,0.01,VWS V14.01,2013-12-02 08:02:00,
2013-12-02 03:07:00,46.1,42.8,29.97,SW,225,0.0,1.0,88,0.01,,---,0.01,VWS V14.01,2013-12-02 08:07:00,
2013-12-02 03:12:00,46.0,42.7,29.97,SW,225,0.0,0.0,88,0.01,,---,0.01,VWS V14.01,2013-12-02 08:12:00,
2013-12-02 03:17:00,45.9,42.8,29.97,SW,225,0.0,0.0,89,0.02,,---,0.02,VWS V14.01,2013-12-02 08:17:00,
2013-12-02 03:22:00,45.9,43.1,29.97,SW,225,1.0,1.0,90,0.02,,---,0.02,VWS V14.01,2013-12-02 08:22:00,
2013-12-02 03:27:00,45.7,42.9,29.97,SW,225,0.0,1.0,90,0.02,,---,0.02,VWS V14.01,2013-12-02 08:27:00,
2013-12-02 03:32:00,45.6,42.8,29.97,SW,225,0.0,0.0,90,0.02,,---,0.02,VWS V14.01,2013-12-02 08:32:00,
2013-12-02 03:37:00,45.5,42.7,29.96,SW,225,0.0,0.0,90,0.02,,---,0.02,VWS V14.01,2013-12-02 08:37:00,
2013-12-02 03:42:00,45.5,43.0,29.96,SW,225,0.0,0.0,91,0.02,,---,0.02,VWS V14.01,2013-12-02 08:42:00,
2013-12-02 03:47:00,45.4,42.9,29.97,SW,225,0.0,0.0,91,0.02,,---,0.02,VWS V14.01,2013-12-02 08:47:00,
2013-12-02 03:52:00,45.2,42.7,29.96,SW,225,0.0,0.0,91,0.02,,---,0.02,VWS V14.01,2013-12-02 08:52:00,
2013-12-02 03:57:00,45.2,43.0,29.96,SW,225,0.0,0.0,92,0.02,,---,0.02,VWS V14.01,2013-12-02 08:57:00,
2013-12-02 04:02:00,45.1,42.9,29.96,SW,225,1.0,2.0,92,0.01,,---,0.02,VWS V14.01,2013-12-02 09:02:00,
2013-12-02 04:07:00,45.0,42.8,29.96,SW,225,0.0,2.0,92,0.01,,---,0.02,VWS V14.01,2013-12-02 09:07:00,
2013-12-02 04:12:00,45.0,42.8,29.96,SW,225,0.0,1.0,92,0.02,,---,0.03,VWS V14.01,2013-12-02 09:12:00,
2013-12-02 04:17:00,44.9,42.7,29.96,SW,225,0.0,2.0,92,0.02,,---,0.03,VWS V14.01,2013-12-02 09:17:00,
2013-12-02 04:22:00,44.9,42.7,29.96,SW,225,0.0,0.0,92,0.02,,---,0.04,VWS V14.01,2013-12-02 09:22:00,
2013-12-02 04:27:00,44.9,42.7,29.96,SW,225,0.0,1.0,92,0.02,,---,0.04,VWS V14.01,2013-12-02 09:27:00,
2013-12-02 04:32:00,44.8,42.6,29.95,SW,225,0.0,0.0,92,0.02,,---,0.04,VWS V14.01,2013-12-02 09:32:00,
2013-12-02 04:37:00,44.7,42.5,29.95,SW,225,0.0,1.0,92,0.02,,---,0.04,VWS V14.01,2013-12-02 09:37:00,
2013-12-02 04:42:00,44.7,42.5,29.95,SW,225,1.0,2.0,92,0.03,,---,0.05,VWS V14.01,2013-12-02 09:42:00,
2013-12-02 04:47:00,44.6,42.4,29.95,SW,225,0.0,2.0,92,0.03,,---,0.05,VWS V14.01,2013-12-02 09:47:00,
2013-12-02 04:52:00,44.6,42.4,29.95,SW,225,1.0,1.0,92,0.03,,---,0.05,VWS V14.01,2013-12-02 09:52:00,
2013-12-02 04:57:00,44.5,42.6,29.95,SW,225,0.0,2.0,93,0.03,,---,0.05,VWS V14.01,2013-12-02 09:57:00,
2013-12-02 05:02:00,44.5,42.6,29.95,SW,225,0.0,1.0,93,0.03,,---,0.05,VWS V14.01,2013-12-02 10:02:00,
2013-12-02 05:07:00,44.5,42.6,29.95,SW,225,0.0,1.0,93,0.03,,---,0.05,VWS V14.01,2013-12-02 10:07:00,
2013-12-02 05:12:00,44.5,42.6,29.95,SW,225,0.0,0.0,93,0.02,,---,0.05,VWS V14.01,2013-12-02 10:12:00,
2013-12-02 05:17:00,44.4,42.5,29.94,SW,225,0.0,0.0,93,0.02,,---,0.05,VWS V14.01,2013-12-02 10:17:00,
2013-12-02 05:22:00,44.4,42.5,29.94,SW,225,0.0,0.0,93,0.02,,---,0.05,VWS V14.01,2013-12-02 10:22:00,
2013-12-02 05:27:00,44.4,42.5,29.94,SW,225,0.0,0.0,93,0.02,,---,0.05,VWS V14.01,2013-12-02 10:27:00,
2013-12-02 05:32:00,44.4,42.5,29.94,SW,225,0.0,0.0,93,0.01,,---,0.05,VWS V14.01,2013-12-02 10:32:00,
2013-12-02 05:37:00,44.4,42.5,29.94,SW,225,0.0,0.0,93,0.01,,---,0.05,VWS V14.01,2013-12-02 10:37:00,
2013-12-02 05:42:00,44.3,42.4,29.94,SW,225,0.0,0.0,93,0.00,,---,0.05,VWS V14.01,2013-12-02 10:42:00,
2013-12-02 05:47:00,44.4,42.5,29.94,SW,225,0.0,0.0,93,0.00,,---,0.05,VWS V14.01,2013-12-02 10:47:00,
2013-12-02 05:52:00,44.4,42.5,29.95,SW,225,0.0,0.0,93,0.00,,---,0.05,VWS V14.01,2013-12-02 10:52:00,
2013-12-02 05:57:00,44.3,42.4,29.95,SW,225,0.0,1.0,93,0.00,,---,0.05,VWS V14.01,2013-12-02 10:57:00,
2013-12-02 06:02:00,44.3,42.4,29.94,SW,225,1.0,1.0,93,0.00,,---,0.05,VWS V14.01,2013-12-02 11:02:00,
2013-12-02 06:07:00,44.3,42.4,29.94,SW,225,0.0,1.0,93,0.00,,---,0.05,VWS V14.01,2013-12-02 11:07:00,
2013-12-02 06:12:00,44.3,42.4,29.94,SW,225,0.0,0.0,93,0.00,,---,0.05,VWS V14.01,2013-12-02 11:12:00,
2013-12-02 06:17:00,44.3,42.7,29.94,SW,225,0.0,2.0,94,0.00,,---,0.05,VWS V14.01,2013-12-02 11:17:00,
2013-12-02 06:22:00,44.3,42.7,29.94,SW,225,0.0,2.0,94,0.00,,---,0.05,VWS V14.01,2013-12-02 11:22:00,
2013-12-02 06:27:00,44.4,42.8,29.94,SW,225,0.0,3.0,94,0.00,,---,0.05,VWS V14.01,2013-12-02 11:27:00,
2013-12-02 06:32:00,44.4,42.8,29.94,SW,225,1.0,3.0,94,0.00,,---,0.05,VWS V14.01,2013-12-02 11:32:00,
2013-12-02 06:37:00,44.4,42.8,29.94,SW,225,2.0,3.0,94,0.00,,---,0.05,VWS V14.01,2013-12-02 11:37:00,
2013-12-02 06:42:00,44.4,42.8,29.94,SW,221,1.0,2.0,94,0.00,,---,0.05,VWS V14.01,2013-12-02 11:42:00,
2013-12-02 06:47:00,44.4,42.8,29.93,SW,221,2.0,4.0,94,0.00,,---,0.05,VWS V14.01,2013-12-02 11:47:00,
2013-12-02 06:52:00,44.5,42.9,29.93,SW,221,1.0,2.0,94,0.01,,---,0.06,VWS V14.01,2013-12-02 11:52:00,
2013-12-02 06:57:00,44.5,42.9,29.93,SW,221,3.0,3.0,94,0.01,,---,0.06,VWS V14.01,2013-12-02 11:57:00,
2013-12-02 07:02:00,44.5,42.9,29.93,SW,224,0.0,1.0,94,0.01,,---,0.06,VWS V14.01,2013-12-02 12:02:00,
2013-12-02 07:07:00,44.5,42.9,29.93,SW,223,0.0,3.0,94,0.01,,---,0.06,VWS V14.01,2013-12-02 12:07:00,
2013-12-02 07:12:00,44.5,42.9,29.93,SSW,206,2.0,2.0,94,0.01,,---,0.06,VWS V14.01,2013-12-02 12:12:00,
2013-12-02 07:17:00,44.6,43.0,29.93,SSW,207,1.0,4.0,94,0.01,,---,0.06,VWS V14.01,2013-12-02 12:17:00,
2013-12-02 07:22:00,44.6,43.0,29.93,SSW,213,1.0,2.0,94,0.01,,---,0.06,VWS V14.01,2013-12-02 12:22:00,
2013-12-02 07:27:00,44.6,43.0,29.93,SSW,208,3.0,3.0,94,0.01,,---,0.06,VWS V14.01,2013-12-02 12:27:00,
2013-12-02 07:32:00,44.6,43.0,29.93,SSW,203,3.0,3.0,94,0.01,,---,0.06,VWS V14.01,2013-12-02 12:32:00,
2013-12-02 07:37:00,44.6,43.0,29.93,SSW,211,0.0,3.0,94,0.01,,---,0.06,VWS V14.01,2013-12-02 12:37:00,
2013-12-02 07:42:00,44.6,43.0,29.93,SW,223,0.0,2.0,94,0.01,,---,0.06,VWS V14.01,2013-12-02 12:42:00,
2013-12-02 07:47:00,44.6,43.0,29.93,SW,223,1.0,3.0,94,0.01,,---,0.06,VWS V14.01,2013-12-02 12:47:00,
2013-12-02 07:52:00,44.5,42.9,29.93,SW,223,2.0,2.0,94,0.00,,---,0.06,VWS V14.01,2013-12-02 12:52:00,
2013-12-02 07:57:00,44.6,43.0,29.93,SW,223,2.0,3.0,94,0.00,,---,0.06,VWS V14.01,2013-12-02 12:57:00,
2013-12-02 08:02:00,44.6,43.0,29.93,SW,223,1.0,2.0,94,0.00,,---,0.06,VWS V14.01,2013-12-02 13:02:00,
2013-12-02 08:07:00,44.6,43.0,29.93,SW,223,0.0,3.0,94,0.00,,---,0.06,VWS V14.01,2013-12-02 13:07:00,
2013-12-02 08:12:00,44.6,43.0,29.94,SW,223,1.0,2.0,94,0.00,,---,0.06,VWS V14.01,2013-12-02 13:12:00,
2013-12-02 08:17:00,44.6,43.0,29.93,SW,223,0.0,2.0,94,0.00,,---,0.06,VWS V14.01,2013-12-02 13:17:00,
2013-12-02 08:22:00,44.6,43.0,29.93,SW,223,0.0,2.0,94,0.00,,---,0.06,VWS V14.01,2013-12-02 13:22:00,
2013-12-02 08:27:00,44.6,43.0,29.93,SW,223,2.0,3.0,94,0.00,,---,0.06,VWS V14.01,2013-12-02 13:27:00,
2013-12-02 08:32:00,44.7,43.1,29.93,SSW,207,2.0,3.0,94,0.00,,---,0.06,VWS V14.01,2013-12-02 13:32:00,
2013-12-02 08:37:00,44.6,43.0,29.93,SSW,196,1.0,3.0,94,0.00,,---,0.06,VWS V14.01,2013-12-02 13:37:00,
2013-12-02 08:42:00,44.6,43.0,29.94,SSW,196,1.0,2.0,94,0.00,,---,0.06,VWS V14.01,2013-12-02 13:42:00,
2013-12-02 08:47:00,44.6,43.0,29.94,SSW,213,2.0,4.0,94,0.00,,---,0.06,VWS V14.01,2013-12-02 13:47:00,
2013-12-02 08:52:00,44.6,43.0,29.94,SSW,213,0.0,1.0,94,0.00,,---,0.06,VWS V14.01,2013-12-02 13:52:00,
2013-12-02 08:57:00,44.6,43.0,29.94,SSW,213,0.0,1.0,94,0.00,,---,0.06,VWS V14.01,2013-12-02 13:57:00,
2013-12-02 09:02:00,44.6,43.0,29.94,SSW,213,0.0,0.0,94,0.00,,---,0.06,VWS V14.01,2013-12-02 14:02:00,
2013-12-02 09:07:00,44.6,43.3,29.94,SSW,213,0.0,0.0,95,0.00,,---,0.06,VWS V14.01,2013-12-02 14:07:00,
2013-12-02 09:12:00,44.7,43.4,29.94,SSW,213,0.0,0.0,95,0.00,,---,0.06,VWS V14.01,2013-12-02 14:12:00,
2013-12-02 09:17:00,44.7,43.4,29.94,SSW,213,0.0,2.0,95,0.00,,---,0.06,VWS V14.01,2013-12-02 14:17:00,
2013-12-02 09:22:00,44.7,43.4,29.94,SSW,213,0.0,0.0,95,0.00,,---,0.06,VWS V14.01,2013-12-02 14:22:00,
2013-12-02 09:27:00,44.8,43.5,29.93,SSW,213,0.0,0.0,95,0.00,,---,0.06,VWS V14.01,2013-12-02 14:27:00,
2013-12-02 09:32:00,44.9,43.6,29.93,SSW,213,0.0,0.0,95,0.00,,---,0.06,VWS V14.01,2013-12-02 14:32:00,
2013-12-02 09:37:00,44.9,43.6,29.93,SSW,213,1.0,1.0,95,0.00,,---,0.06,VWS V14.01,2013-12-02 14:37:00,
2013-12-02 09:42:00,44.9,43.6,29.93,SSW,213,0.0,0.0,95,0.00,,---,0.06,VWS V14.01,2013-12-02 14:42:00,
2013-12-02 09:47:00,45.0,43.7,29.93,SSW,213,0.0,2.0,95,0.00,,---,0.06,VWS V14.01,2013-12-02 14:47:00,
2013-12-02 09:52:00,45.0,43.7,29.93,SSW,213,0.0,2.0,95,0.00,,---,0.06,VWS V14.01,2013-12-02 14:52:00,
2013-12-02 09:57:00,45.1,43.8,29.93,SSW,209,2.0,4.0,95,0.01,,---,0.07,VWS V14.01,2013-12-02 14:57:00,
2013-12-02 10:02:00,45.1,43.8,29.93,SSW,209,0.0,2.0,95,0.01,,---,0.07,VWS V14.01,2013-12-02 15:02:00,
2013-12-02 10:07:00,45.2,43.9,29.92,SSW,209,2.0,2.0,95,0.01,,---,0.07,VWS V14.01,2013-12-02 15:07:00,
2013-12-02 10:12:00,45.2,43.9,29.92,SSE,162,1.0,2.0,95,0.01,,---,0.07,VWS V14.01,2013-12-02 15:12:00,
2013-12-02 10:17:00,45.3,44.0,29.92,SSE,162,1.0,2.0,95,0.01,,---,0.07,VWS V14.01,2013-12-02 15:17:00,
2013-12-02 10:21:00,45.3,44.0,29.92,South,181,3.0,3.0,95,0.01,,---,0.07,VWS V14.01,2013-12-02 15:21:00,
2013-12-02 10:26:00,45.4,44.0,29.92,SSW,201,1.0,5.0,95,0.01,,---,0.07,VWS V14.01,2013-12-02 15:26:00,
2013-12-02 10:31:00,45.4,44.0,29.92,SW,216,2.0,2.0,95,0.01,,---,0.07,VWS V14.01,2013-12-02 15:31:00,
2013-12-02 10:36:00,45.4,44.0,29.92,SW,216,1.0,2.0,95,0.01,,---,0.07,VWS V14.01,2013-12-02 15:36:00,
2013-12-02 10:41:00,45.5,44.2,29.92,SW,215,1.0,1.0,95,0.01,,---,0.07,VWS V14.01,2013-12-02 15:41:00,
2013-12-02 10:46:00,45.5,44.2,29.92,SW,215,0.0,1.0,95,0.01,,---,0.07,VWS V14.01,2013-12-02 15:46:00,
2013-12-02 10:51:00,45.6,44.2,29.92,SW,215,0.0,0.0,95,0.01,,---,0.07,VWS V14.01,2013-12-02 15:51:00,
2013-12-02 10:56:00,45.7,44.3,29.92,SW,215,0.0,1.0,95,0.01,,---,0.07,VWS V14.01,2013-12-02 15:56:00,
2013-12-02 11:01:00,45.7,44.3,29.92,SW,215,0.0,0.0,95,0.00,,---,0.07,VWS V14.01,2013-12-02 16:01:00,
2013-12-02 11:06:00,45.8,44.5,29.92,SSW,211,0.0,0.0,95,0.00,,---,0.07,VWS V14.01,2013-12-02 16:06:00,
2013-12-02 11:11:00,45.9,44.8,29.92,SSW,211,1.0,2.0,96,0.00,,---,0.07,VWS V14.01,2013-12-02 16:11:00,
2013-12-02 11:16:00,46.0,44.9,29.92,SSW,211,0.0,2.0,96,0.00,,---,0.07,VWS V14.01,2013-12-02 16:16:00,
2013-12-02 11:21:00,46.0,44.7,29.92,SW,219,1.0,2.0,95,0.00,,---,0.07,VWS V14.01,2013-12-02 16:21:00,
2013-12-02 11:26:00,46.1,44.8,29.92,SSW,199,2.0,4.0,95,0.00,,---,0.07,VWS V14.01,2013-12-02 16:26:00,
2013-12-02 11:31:00,46.1,44.8,29.91,South,181,2.0,2.0,95,0.00,,---,0.07,VWS V14.01,2013-12-02 16:31:00,
2013-12-02 11:36:00,46.2,44.8,29.92,SSW,202,1.0,4.0,95,0.00,,---,0.07,VWS V14.01,2013-12-02 16:36:00,
2013-12-02 11:41:00,46.3,45.0,29.91,SW,223,3.0,3.0,95,0.00,,---,0.07,VWS V14.01,2013-12-02 16:41:00,
2013-12-02 11:46:00,46.4,45.0,29.91,SSW,192,1.0,4.0,95,0.00,,---,0.07,VWS V14.01,2013-12-02 16:46:00,
2013-12-02 11:51:00,46.4,45.0,29.91,South,173,0.0,1.0,95,0.00,,---,0.07,VWS V14.01,2013-12-02 16:51:00,
2013-12-02 11:56:00,46.5,45.2,29.90,South,169,2.0,2.0,95,0.00,,---,0.07,VWS V14.01,2013-12-02 16:56:00,
2013-12-02 12:02:00,46.5,45.2,29.90,South,169,1.0,3.0,95,0.00,,---,0.07,VWS V14.01,2013-12-02 17:02:00,
2013-12-02 12:07:00,46.7,45.3,29.89,SSW,199,1.0,2.0,95,0.00,,---,0.07,VWS V14.01,2013-12-02 17:07:00,
2013-12-02 12:12:00,46.7,45.3,29.89,SW,215,1.0,1.0,95,0.00,,---,0.07,VWS V14.01,2013-12-02 17:12:00,
2013-12-02 12:17:00,46.7,45.3,29.89,SW,215,3.0,3.0,95,0.00,,---,0.07,VWS V14.01,2013-12-02 17:17:00,
2013-12-02 12:22:00,46.7,45.1,29.89,SW,219,2.0,3.0,94,0.00,,---,0.07,VWS V14.01,2013-12-02 17:22:00,
2013-12-02 12:27:00,46.8,45.5,29.89,SW,219,1.0,3.0,95,0.00,,---,0.07,VWS V14.01,2013-12-02 17:27:00,
2013-12-02 12:32:00,46.9,45.5,29.89,SW,219,1.0,2.0,95,0.00,,---,0.07,VWS V14.01,2013-12-02 17:32:00,
2013-12-02 12:37:00,46.9,45.5,29.88,SW,219,0.0,2.0,95,0.00,,---,0.07,VWS V14.01,2013-12-02 17:37:00,
2013-12-02 12:42:00,47.0,45.7,29.88,SW,221,2.0,2.0,95,0.00,,---,0.07,VWS V14.01,2013-12-02 17:42:00,
2013-12-02 12:47:00,47.1,45.5,29.88,SE,128,3.0,4.0,94,0.00,,---,0.07,VWS V14.01,2013-12-02 17:47:00,
2013-12-02 12:52:00,47.2,45.6,29.88,SSW,198,2.0,2.0,94,0.00,,---,0.07,VWS V14.01,2013-12-02 17:52:00,
2013-12-02 12:57:00,47.3,45.9,29.88,SSW,198,2.0,3.0,95,0.00,,---,0.07,VWS V14.01,2013-12-02 17:57:00,
2013-12-02 13:02:00,47.3,45.9,29.87,South,190,2.0,2.0,95,0.00,,---,0.07,VWS V14.01,2013-12-02 18:02:00,
2013-12-02 13:07:00,47.4,46.0,29.87,South,191,0.0,4.0,95,0.00,,---,0.07,VWS V14.01,2013-12-02 18:07:00,
2013-12-02 13:12:00,47.4,46.0,29.87,SSE,155,0.0,1.0,95,0.00,,---,0.07,VWS V14.01,2013-12-02 18:12:00,
2013-12-02 13:17:00,47.4,46.0,29.86,South,188,1.0,3.0,95,0.00,,---,0.07,VWS V14.01,2013-12-02 18:17:00,
2013-12-02 13:22:00,47.4,45.8,29.86,SSE,156,1.0,5.0,94,0.00,,---,0.07,VWS V14.01,2013-12-02 18:22:00,
2013-12-02 13:27:00,47.5,45.9,29.86,SW,216,2.0,5.0,94,0.00,,---,0.07,VWS V14.01,2013-12-02 18:27:00,
2013-12-02 13:32:00,47.5,45.9,29.86,South,170,0.0,1.0,94,0.00,,---,0.07,VWS V14.01,2013-12-02 18:32:00,
2013-12-02 13:37:00,47.5,45.9,29.86,South,170,1.0,2.0,94,0.00,,---,0.07,VWS V14.01,2013-12-02 18:37:00,
2013-12-02 13:42:00,47.6,46.0,29.85,South,185,3.0,3.0,94,0.00,,---,0.07,VWS V14.01,2013-12-02 18:42:00,
2013-12-02 13:47:00,47.6,46.0,29.85,South,190,0.0,4.0,94,0.00,,---,0.07,VWS V14.01,2013-12-02 18:47:00,
2013-12-02 13:52:00,47.6,46.0,29.85,SE,139,1.0,1.0,94,0.00,,---,0.07,VWS V14.01,2013-12-02 18:52:00,
2013-12-02 13:57:00,47.7,46.1,29.85,SSW,195,3.0,5.0,94,0.00,,---,0.07,VWS V14.01,2013-12-02 18:57:00,
2013-12-02 14:02:00,47.7,46.1,29.85,South,184,2.0,3.0,94,0.00,,---,0.07,VWS V14.01,2013-12-02 19:02:00,
2013-12-02 14:07:00,47.8,46.2,29.85,SSW,212,2.0,5.0,94,0.00,,---,0.07,VWS V14.01,2013-12-02 19:07:00,
2013-12-02 14:12:00,47.8,46.2,29.84,SSW,205,2.0,2.0,94,0.00,,---,0.07,VWS V14.01,2013-12-02 19:12:00,
2013-12-02 14:17:00,47.9,46.3,29.84,SW,217,0.0,5.0,94,0.00,,---,0.07,VWS V14.01,2013-12-02 19:17:00,
2013-12-02 14:22:00,47.9,46.3,29.83,SW,217,0.0,0.0,94,0.00,,---,0.07,VWS V14.01,2013-12-02 19:22:00,
2013-12-02 14:27:00,48.0,46.4,29.84,SW,217,0.0,0.0,94,0.00,,---,0.07,VWS V14.01,2013-12-02 19:27:00,
2013-12-02 14:32:00,48.1,46.7,29.84,SW,217,0.0,0.0,95,0.00,,---,0.07,VWS V14.01,2013-12-02 19:32:00,
2013-12-02 14:37:00,48.1,46.7,29.83,SW,217,0.0,1.0,95,0.00,,---,0.07,VWS V14.01,2013-12-02 19:37:00,
2013-12-02 14:42:00,48.2,46.6,29.83,SW,217,1.0,1.0,94,0.00,,---,0.07,VWS V14.01,2013-12-02 19:42:00,
2013-12-02 14:47:00,48.2,46.6,29.83,SW,217,0.0,1.0,94,0.00,,---,0.07,VWS V14.01,2013-12-02 19:47:00,
2013-12-02 14:52:00,48.2,46.6,29.83,SW,217,0.0,1.0,94,0.00,,---,0.07,VWS V14.01,2013-12-02 19:52:00,
2013-12-02 14:57:00,48.3,46.7,29.83,SW,217,0.0,1.0,94,0.00,,---,0.07,VWS V14.01,2013-12-02 19:57:00,
2013-12-02 15:02:00,48.3,46.7,29.84,SW,217,0.0,0.0,94,0.00,,---,0.07,VWS V14.01,2013-12-02 20:02:00,
2013-12-02 15:07:00,48.3,46.7,29.84,SW,217,0.0,2.0,94,0.00,,---,0.07,VWS V14.01,2013-12-02 20:07:00,
2013-12-02 15:12:00,48.4,46.8,29.83,SW,217,0.0,0.0,94,0.00,,---,0.07,VWS V14.01,2013-12-02 20:12:00,
2013-12-02 15:17:00,48.4,46.8,29.84,SW,217,0.0,2.0,94,0.00,,---,0.07,VWS V14.01,2013-12-02 20:17:00,
2013-12-02 15:22:00,48.4,46.8,29.83,SW,217,1.0,1.0,94,0.00,,---,0.07,VWS V14.01,2013-12-02 20:22:00,
2013-12-02 15:27:00,48.4,46.8,29.83,SW,217,0.0,2.0,94,0.00,,---,0.07,VWS V14.01,2013-12-02 20:27:00,
2013-12-02 15:32:00,48.4,46.8,29.83,SW,217,0.0,0.0,94,0.00,,---,0.07,VWS V14.01,2013-12-02 20:32:00,
2013-12-02 15:37:00,48.5,46.9,29.83,SW,217,0.0,0.0,94,0.00,,---,0.07,VWS V14.01,2013-12-02 20:37:00,
2013-12-02 15:42:00,48.5,46.9,29.83,SW,217,0.0,0.0,94,0.00,,---,0.07,VWS V14.01,2013-12-02 20:42:00,
2013-12-02 15:47:00,48.5,46.9,29.83,SW,217,0.0,0.0,94,0.00,,---,0.07,VWS V14.01,2013-12-02 20:47:00,
2013-12-02 15:52:00,48.5,46.9,29.83,SW,217,2.0,2.0,94,0.00,,---,0.07,VWS V14.01,2013-12-02 20:52:00,
2013-12-02 15:57:00,48.6,47.0,29.83,SW,217,0.0,2.0,94,0.00,,---,0.07,VWS V14.01,2013-12-02 20:57:00,
2013-12-02 16:02:00,48.6,47.0,29.83,SW,217,0.0,0.0,94,0.00,,---,0.07,VWS V14.01,2013-12-02 21:02:00,
2013-12-02 16:07:00,48.6,47.2,29.83,SW,217,0.0,1.0,95,0.00,,---,0.07,VWS V14.01,2013-12-02 21:07:00,
2013-12-02 16:12:00,48.6,47.2,29.83,SW,217,0.0,1.0,95,0.00,,---,0.07,VWS V14.01,2013-12-02 21:12:00,
2013-12-02 16:17:00,48.6,47.2,29.83,East,82,2.0,3.0,95,0.00,,---,0.07,VWS V14.01,2013-12-02 21:17:00,
2013-12-02 16:22:00,48.6,47.2,29.83,East,85,1.0,2.0,95,0.00,,---,0.07,VWS V14.01,2013-12-02 21:22:00,
2013-12-02 16:27:00,48.6,47.2,29.83,East,85,1.0,2.0,95,0.00,,---,0.07,VWS V14.01,2013-12-02 21:27:00,
2013-12-02 16:32:00,48.5,47.1,29.83,East,85,0.0,0.0,95,0.00,,---,0.07,VWS V14.01,2013-12-02 21:32:00,
2013-12-02 16:37:00,48.5,47.1,29.83,East,85,2.0,2.0,95,0.00,,---,0.07,VWS V14.01,2013-12-02 21:37:00,
2013-12-02 16:42:00,48.5,47.1,29.83,East,85,0.0,0.0,95,0.00,,---,0.07,VWS V14.01,2013-12-02 21:42:00,
2013-12-02 16:47:00,48.6,47.2,29.83,East,85,0.0,1.0,95,0.00,,---,0.07,VWS V14.01,2013-12-02 21:47:00,
2013-12-02 16:51:00,48.5,47.1,29.83,East,85,0.0,0.0,95,0.00,,---,0.07,VWS V14.01,2013-12-02 21:51:00,
2013-12-02 16:56:00,48.6,47.2,29.83,East,85,0.0,2.0,95,0.00,,---,0.07,VWS V14.01,2013-12-02 21:56:00,
2013-12-02 17:01:00,48.6,47.2,29.83,East,85,0.0,0.0,95,0.00,,---,0.07,VWS V14.01,2013-12-02 22:01:00,
2013-12-02 17:06:00,48.6,47.2,29.83,East,85,0.0,0.0,95,0.00,,---,0.07,VWS V14.01,2013-12-02 22:06:00,
2013-12-02 17:11:00,48.5,47.1,29.83,East,85,0.0,0.0,95,0.00,,---,0.07,VWS V14.01,2013-12-02 22:11:00,
2013-12-02 17:16:00,48.5,47.1,29.84,East,85,0.0,1.0,95,0.00,,---,0.07,VWS V14.01,2013-12-02 22:16:00,
2013-12-02 17:21:00,48.5,47.1,29.83,East,85,0.0,0.0,95,0.00,,---,0.07,VWS V14.01,2013-12-02 22:21:00,
2013-12-02 17:26:00,48.5,47.1,29.83,East,85,0.0,0.0,95,0.00,,---,0.07,VWS V14.01,2013-12-02 22:26:00,
2013-12-02 17:31:00,48.5,47.1,29.83,East,85,0.0,0.0,95,0.00,,---,0.07,VWS V14.01,2013-12-02 22:31:00,
2013-12-02 17:36:00,48.5,47.1,29.83,East,85,0.0,0.0,95,0.00,,---,0.07,VWS V14.01,2013-12-02 22:36:00,
2013-12-02 17:41:00,48.5,47.1,29.83,East,85,0.0,0.0,95,0.00,,---,0.07,VWS V14.01,2013-12-02 22:41:00,
2013-12-02 17:46:00,48.5,47.1,29.84,East,85,0.0,1.0,95,0.00,,---,0.07,VWS V14.01,2013-12-02 22:46:00,
2013-12-02 17:51:00,48.5,47.1,29.84,SSW,203,0.0,1.0,95,0.00,,---,0.07,VWS V14.01,2013-12-02 22:51:00,
2013-12-02 17:56:00,48.5,47.1,29.84,SSW,203,0.0,2.0,95,0.00,,---,0.07,VWS V14.01,2013-12-02 22:56:00,
2013-12-02 18:01:00,48.5,47.1,29.84,SSW,203,1.0,1.0,95,0.00,,---,0.07,VWS V14.01,2013-12-02 23:01:00,
2013-12-02 18:06:00,48.5,47.1,29.84,SSW,203,1.0,1.0,95,0.00,,---,0.07,VWS V14.01,2013-12-02 23:06:00,
2013-12-02 18:11:00,48.5,47.1,29.84,SSW,203,0.0,1.0,95,0.00,,---,0.07,VWS V14.01,2013-12-02 23:11:00,
2013-12-02 18:16:00,48.5,47.4,29.83,SSW,203,1.0,2.0,96,0.00,,---,0.07,VWS V14.01,2013-12-02 23:16:00,
2013-12-02 18:21:00,48.5,47.4,29.83,ESE,123,0.0,0.0,96,0.00,,---,0.07,VWS V14.01,2013-12-02 23:21:00,
2013-12-02 18:26:00,48.5,47.4,29.83,ESE,123,0.0,2.0,96,0.00,,---,0.07,VWS V14.01,2013-12-02 23:26:00,
2013-12-02 18:31:00,48.5,47.4,29.83,ESE,123,0.0,0.0,96,0.00,,---,0.07,VWS V14.01,2013-12-02 23:31:00,
2013-12-02 18:36:00,48.4,47.3,29.83,ESE,123,0.0,2.0,96,0.00,,---,0.07,VWS V14.01,2013-12-02 23:36:00,
2013-12-02 18:41:00,48.4,47.3,29.83,ESE,123,0.0,0.0,96,0.00,,---,0.07,VWS V14.01,2013-12-02 23:41:00,
2013-12-02 18:46:00,48.4,47.3,29.83,ESE,123,1.0,2.0,96,0.00,,---,0.07,VWS V14.01,2013-12-02 23:46:00,
2013-12-02 18:51:00,48.4,47.3,29.83,SSE,148,1.0,1.0,96,0.00,,---,0.07,VWS V14.01,2013-12-02 23:51:00,
2013-12-02 18:56:00,48.4,47.3,29.83,SSE,161,0.0,2.0,96,0.00,,---,0.07,VWS V14.01,2013-12-02 23:56:00,
2013-12-02 19:01:00,48.4,47.3,29.83,SSE,161,0.0,0.0,96,0.00,,---,0.07,VWS V14.01,2013-12-03 00:01:00,
2013-12-02 19:06:00,48.4,47.3,29.83,SSE,161,1.0,2.0,96,0.00,,---,0.07,VWS V14.01,2013-12-03 00:06:00,
2013-12-02 19:11:00,48.4,47.3,29.83,SSE,161,0.0,0.0,96,0.00,,---,0.07,VWS V14.01,2013-12-03 00:11:00,
2013-12-02 19:16:00,48.4,47.3,29.83,SSE,161,1.0,2.0,96,0.00,,---,0.07,VWS V14.01,2013-12-03 00:16:00,
2013-12-02 19:21:00,48.4,47.3,29.83,SSE,161,1.0,1.0,96,0.00,,---,0.07,VWS V14.01,2013-12-03 00:21:00,
2013-12-02 19:26:00,48.4,47.3,29.83,SSE,167,2.0,3.0,96,0.00,,---,0.07,VWS V14.01,2013-12-03 00:26:00,
2013-12-02 19:31:00,48.5,47.4,29.83,SSE,167,0.0,1.0,96,0.00,,---,0.07,VWS V14.01,2013-12-03 00:31:00,
2013-12-02 19:36:00,48.5,47.4,29.83,SSE,167,0.0,2.0,96,0.00,,---,0.07,VWS V14.01,2013-12-03 00:36:00,
2013-12-02 19:41:00,48.5,47.4,29.83,SSE,167,0.0,0.0,96,0.00,,---,0.07,VWS V14.01,2013-12-03 00:41:00,
2013-12-02 19:46:00,48.5,47.4,29.83,SSE,167,0.0,1.0,96,0.00,,---,0.07,VWS V14.01,2013-12-03 00:46:00,
2013-12-02 19:51:00,48.5,47.4,29.84,SSE,167,0.0,0.0,96,0.00,,---,0.07,VWS V14.01,2013-12-03 00:51:00,
2013-12-02 19:56:00,48.5,47.4,29.83,SSE,167,0.0,0.0,96,0.00,,---,0.07,VWS V14.01,2013-12-03 00:56:00,
2013-12-02 20:02:00,48.5,47.4,29.83,SSE,167,0.0,1.0,96,0.00,,---,0.07,VWS V14.01,2013-12-03 01:02:00,
2013-12-02 20:07:00,48.5,47.4,29.83,SSE,167,0.0,1.0,96,0.00,,---,0.07,VWS V14.01,2013-12-03 01:07:00,
2013-12-02 20:12:00,48.5,47.4,29.84,SSE,167,0.0,0.0,96,0.00,,---,0.07,VWS V14.01,2013-12-03 01:12:00,
2013-12-02 20:17:00,48.5,47.4,29.84,SSE,167,0.0,0.0,96,0.00,,---,0.07,VWS V14.01,2013-12-03 01:17:00,
2013-12-02 20:22:00,48.5,47.4,29.84,SSE,167,0.0,0.0,96,0.00,,---,0.07,VWS V14.01,2013-12-03 01:22:00,
2013-12-02 20:27:00,48.5,47.4,29.84,SSE,167,0.0,0.0,96,0.00,,---,0.07,VWS V14.01,2013-12-03 01:27:00,
2013-12-02 20:32:00,48.5,47.4,29.84,SSE,167,0.0,0.0,96,0.00,,---,0.07,VWS V14.01,2013-12-03 01:32:00,
2013-12-02 20:37:00,48.5,47.4,29.84,SSE,167,0.0,0.0,96,0.00,,---,0.07,VWS V14.01,2013-12-03 01:37:00,
2013-12-02 20:42:00,48.5,47.4,29.85,SSE,167,0.0,0.0,96,0.00,,---,0.07,VWS V14.01,2013-12-03 01:42:00,
2013-12-02 20:47:00,48.5,47.4,29.85,SSE,167,0.0,1.0,96,0.00,,---,0.07,VWS V14.01,2013-12-03 01:47:00,
2013-12-02 20:52:00,48.5,47.4,29.85,SSE,167,0.0,0.0,96,0.00,,---,0.07,VWS V14.01,2013-12-03 01:52:00,
2013-12-02 20:57:00,48.5,47.4,29.85,SSE,167,0.0,0.0,96,0.00,,---,0.07,VWS V14.01,2013-12-03 01:57:00,
2013-12-02 21:02:00,48.5,47.4,29.85,SSE,167,0.0,0.0,96,0.00,,---,0.07,VWS V14.01,2013-12-03 02:02:00,
2013-12-02 21:07:00,48.5,47.4,29.85,SSE,167,0.0,0.0,96,0.00,,---,0.07,VWS V14.01,2013-12-03 02:07:00,
2013-12-02 21:12:00,48.5,47.4,29.85,SSE,167,0.0,0.0,96,0.00,,---,0.07,VWS V14.01,2013-12-03 02:12:00,
2013-12-02 21:17:00,48.5,47.4,29.85,SSE,167,0.0,0.0,96,0.00,,---,0.07,VWS V14.01,2013-12-03 02:17:00,
2013-12-02 21:22:00,48.5,47.4,29.85,SSE,167,0.0,0.0,96,0.00,,---,0.07,VWS V14.01,2013-12-03 02:22:00,
2013-12-02 21:27:00,48.5,47.4,29.85,SSE,167,0.0,0.0,96,0.00,,---,0.07,VWS V14.01,2013-12-03 02:27:00,
2013-12-02 21:32:00,48.5,47.4,29.85,SSE,167,0.0,0.0,96,0.00,,---,0.07,VWS V14.01,2013-12-03 02:32:00,
2013-12-02 21:37:00,48.5,47.4,29.85,SSE,167,0.0,0.0,96,0.00,,---,0.07,VWS V14.01,2013-12-03 02:37:00,
2013-12-02 21:42:00,48.5,47.4,29.85,SSE,167,0.0,0.0,96,0.00,,---,0.07,VWS V14.01,2013-12-03 02:42:00,
2013-12-02 21:47:00,48.5,47.4,29.85,SSE,167,0.0,0.0,96,0.00,,---,0.07,VWS V14.01,2013-12-03 02:47:00,
2013-12-02 21:52:00,48.5,47.4,29.85,SSE,167,0.0,0.0,96,0.00,,---,0.07,VWS V14.01,2013-12-03 02:52:00,
2013-12-02 21:57:00,48.5,47.4,29.86,SSE,167,0.0,0.0,96,0.00,,---,0.07,VWS V14.01,2013-12-03 02:57:00,
2013-12-02 22:01:00,48.5,47.4,29.86,SSE,167,0.0,0.0,96,0.00,,---,0.07,VWS V14.01,2013-12-03 03:01:00,
2013-12-02 22:06:00,48.6,47.5,29.85,SSE,167,0.0,1.0,96,0.00,,---,0.07,VWS V14.01,2013-12-03 03:06:00,
2013-12-02 22:11:00,48.5,47.4,29.85,SSE,167,0.0,0.0,96,0.01,,---,0.08,VWS V14.01,2013-12-03 03:11:00,
2013-12-02 22:16:00,48.5,47.4,29.85,SSE,167,0.0,0.0,96,0.03,,---,0.10,VWS V14.01,2013-12-03 03:16:00,
2013-12-02 22:21:00,48.5,47.4,29.85,SSE,167,1.0,1.0,96,0.04,,---,0.11,VWS V14.01,2013-12-03 03:21:00,
2013-12-02 22:26:00,48.5,47.4,29.85,SSE,167,0.0,1.0,96,0.04,,---,0.11,VWS V14.01,2013-12-03 03:26:00,
2013-12-02 22:31:00,48.5,47.4,29.85,SSE,167,0.0,0.0,96,0.04,,---,0.11,VWS V14.01,2013-12-03 03:31:00,
2013-12-02 22:36:00,48.6,47.5,29.85,SSE,167,0.0,0.0,96,0.05,,---,0.12,VWS V14.01,2013-12-03 03:36:00,
2013-12-02 22:41:00,48.6,47.5,29.85,SSE,167,0.0,0.0,96,0.05,,---,0.12,VWS V14.01,2013-12-03 03:41:00,
2013-12-02 22:46:00,48.6,47.5,29.85,SSE,167,0.0,1.0,96,0.05,,---,0.12,VWS V14.01,2013-12-03 03:46:00,
2013-12-02 22:51:00,48.6,47.5,29.84,SSE,167,0.0,0.0,96,0.05,,---,0.12,VWS V14.01,2013-12-03 03:51:00,
2013-12-02 22:56:00,48.7,47.6,29.84,SSE,167,0.0,1.0,96,0.05,,---,0.12,VWS V14.01,2013-12-03 03:56:00,
2013-12-02 23:01:00,48.7,47.6,29.85,SSE,167,0.0,0.0,96,0.05,,---,0.12,VWS V14.01,2013-12-03 04:01:00,
2013-12-02 23:06:00,48.7,47.6,29.85,SSE,167,0.0,1.0,96,0.05,,---,0.12,VWS V14.01,2013-12-03 04:06:00,
2013-12-02 23:11:00,48.8,47.7,29.85,SSE,167,0.0,0.0,96,0.04,,---,0.12,VWS V14.01,2013-12-03 04:11:00,
2013-12-02 23:16:00,48.8,47.7,29.85,SSE,167,0.0,0.0,96,0.04,,---,0.12,VWS V14.01,2013-12-03 04:16:00,
2013-12-02 23:21:00,48.9,48.1,29.85,SSE,167,0.0,0.0,97,0.01,,---,0.12,VWS V14.01,2013-12-03 04:21:00,
2013-12-02 23:26:00,48.9,48.1,29.86,SSE,167,0.0,0.0,97,0.01,,---,0.12,VWS V14.01,2013-12-03 04:26:00,
2013-12-02 23:31:00,49.0,48.2,29.85,SSE,167,0.0,0.0,97,0.01,,---,0.12,VWS V14.01,2013-12-03 04:31:00,
2013-12-02 23:36:00,49.0,48.2,29.85,SSE,167,0.0,0.0,97,0.01,,---,0.12,VWS V14.01,2013-12-03 04:36:00,
2013-12-02 23:41:00,49.0,48.2,29.85,SSE,167,0.0,0.0,97,0.00,,---,0.12,VWS V14.01,2013-12-03 04:41:00,
2013-12-02 23:46:00,49.0,48.2,29.85,SSE,167,0.0,0.0,97,0.00,,---,0.12,VWS V14.01,2013-12-03 04:46:00,
2013-12-02 23:51:00,49.0,48.2,29.86,SSE,167,0.0,0.0,97,0.00,,---,0.12,VWS V14.01,2013-12-03 04:51:00,
2013-12-02 23:56:00,49.0,47.9,29.85,SSE,167,0.0,0.0,96,0.00,,---,0.12,VWS V14.01,2013-12-03 04:56:00,